createdAt,value
2022-11-23T00:00:16.939Z,2.50
2022-11-23T00:02:43.701Z,2.40
2022-11-23T00:05:10.631Z,2.40
2022-11-23T00:07:37.314Z,2.50
2022-11-23T00:10:04.406Z,2.50
2022-11-23T00:12:31.061Z,2.50
2022-11-23T00:14:57.762Z,2.50
2022-11-23T00:17:24.431Z,2.50
2022-11-23T00:19:51.169Z,2.50
2022-11-23T00:22:17.899Z,2.50
2022-11-23T00:24:44.576Z,2.60
2022-11-23T00:27:11.266Z,2.60
2022-11-23T00:29:37.931Z,2.50
2022-11-23T00:32:04.801Z,2.60
2022-11-23T00:34:31.464Z,3.30
2022-11-23T00:36:58.181Z,2.50
2022-11-23T00:39:24.885Z,2.50
2022-11-23T00:41:51.571Z,2.60
2022-11-23T00:44:18.371Z,2.50
2022-11-23T00:46:45.039Z,2.50
2022-11-23T00:49:11.709Z,2.50
2022-11-23T00:51:38.621Z,2.50
2022-11-23T00:54:06.095Z,2.50
2022-11-23T00:56:34.679Z,2.50
2022-11-23T00:59:03.406Z,2.50
2022-11-23T01:01:34.182Z,2.50
2022-11-23T01:04:04.647Z,2.50
2022-11-23T01:06:34.318Z,2.50
2022-11-23T01:09:13.328Z,2.50
2022-11-23T01:11:40.485Z,2.50
2022-11-23T01:14:07.259Z,2.50
2022-11-23T01:16:39.569Z,2.50
2022-11-23T01:19:09.132Z,2.40
2022-11-23T01:21:36.685Z,3.70
2022-11-23T01:24:14.506Z,2.50
2022-11-23T01:26:41.259Z,2.40
2022-11-23T01:29:08.348Z,2.40
2022-11-23T01:31:35.014Z,2.40
2022-11-23T01:34:03.406Z,2.40
2022-11-23T01:36:32.382Z,2.40
2022-11-23T01:39:00.788Z,2.40
2022-11-23T01:41:36.735Z,2.40
2022-11-23T01:44:27.456Z,2.40
2022-11-23T01:46:55.497Z,2.40
2022-11-23T01:49:23.502Z,2.40
2022-11-23T01:51:52.657Z,2.40
2022-11-23T01:54:26.820Z,2.40
2022-11-23T01:56:59.774Z,2.40
2022-11-23T01:59:28.669Z,2.40
2022-11-23T02:01:55.421Z,2.30
2022-11-23T02:04:31.377Z,2.30
2022-11-23T02:07:01.044Z,2.30
2022-11-23T02:09:31.815Z,2.30
2022-11-23T02:11:59.166Z,2.30
2022-11-23T02:14:26.119Z,2.30
2022-11-23T02:16:52.904Z,2.30
2022-11-23T02:19:31.849Z,2.30
2022-11-23T02:21:58.711Z,2.20
2022-11-23T02:24:33.605Z,2.30
2022-11-23T02:27:01.999Z,2.30
2022-11-23T02:29:29.751Z,2.30
2022-11-23T02:31:56.740Z,2.30
2022-11-23T02:34:23.411Z,2.60
2022-11-23T02:36:53.512Z,2.30
2022-11-23T02:39:32.722Z,2.30
2022-11-23T02:42:00.631Z,2.30
2022-11-23T02:44:54.955Z,2.30
2022-11-23T02:47:22.133Z,2.30
2022-11-23T02:49:49.510Z,2.20
2022-11-23T02:52:17.388Z,2.20
2022-11-23T02:54:44.400Z,2.30
2022-11-23T02:57:11.119Z,2.20
2022-11-23T02:59:37.832Z,2.20
2022-11-23T03:02:05.606Z,2.20
2022-11-23T03:04:32.664Z,2.20
2022-11-23T03:06:59.465Z,2.20
2022-11-23T03:09:26.503Z,2.20
2022-11-23T03:11:54.045Z,2.30
2022-11-23T03:14:21.216Z,2.20
2022-11-23T03:16:47.979Z,2.10
2022-11-23T03:19:15.148Z,2.10
2022-11-23T03:21:41.863Z,2.10
2022-11-23T03:24:08.586Z,2.10
2022-11-23T03:26:35.400Z,2.10
2022-11-23T03:29:02.053Z,2.10
2022-11-23T03:31:28.727Z,2.10
2022-11-23T03:33:55.506Z,2.10
2022-11-23T03:36:22.165Z,2.10
2022-11-23T03:38:48.891Z,2.00
2022-11-23T03:41:15.599Z,2.00
2022-11-23T03:43:42.282Z,2.00
2022-11-23T03:46:09.024Z,1.90
2022-11-23T03:48:35.688Z,1.90
2022-11-23T03:51:02.350Z,2.00
2022-11-23T03:53:29.013Z,1.90
2022-11-23T03:55:57.554Z,1.90
2022-11-23T03:58:24.356Z,1.90
2022-11-23T04:00:51.218Z,1.90
2022-11-23T04:03:17.953Z,1.90
2022-11-23T04:05:44.644Z,1.20
2022-11-23T04:08:11.397Z,1.90
2022-11-23T04:10:38.129Z,3.30
2022-11-23T04:13:05.051Z,1.80
2022-11-23T04:15:31.715Z,1.80
2022-11-23T04:17:58.448Z,1.80
2022-11-23T04:20:25.341Z,1.80
2022-11-23T04:22:52.005Z,1.80
2022-11-23T04:25:18.894Z,1.80
2022-11-23T04:27:45.999Z,1.80
2022-11-23T04:30:13.222Z,1.80
2022-11-23T04:32:40.354Z,1.90
2022-11-23T04:35:07.350Z,1.90
2022-11-23T04:37:34.004Z,1.80
2022-11-23T04:40:00.648Z,1.90
2022-11-23T04:42:27.372Z,1.90
2022-11-23T04:45:00.414Z,1.90
2022-11-23T04:47:27.365Z,1.90
2022-11-23T04:49:54.023Z,3.70
2022-11-23T04:52:20.770Z,1.90
2022-11-23T04:54:47.558Z,1.90
2022-11-23T04:57:14.243Z,1.90
2022-11-23T04:59:41.076Z,1.90
2022-11-23T05:02:07.816Z,1.90
2022-11-23T05:04:34.666Z,1.90
2022-11-23T05:07:01.581Z,1.80
2022-11-23T05:09:28.248Z,1.90
2022-11-23T05:11:54.909Z,1.90
2022-11-23T05:14:21.577Z,1.90
2022-11-23T05:16:48.242Z,1.80
2022-11-23T05:19:14.961Z,1.80
2022-11-23T05:21:41.685Z,1.80
2022-11-23T05:24:08.525Z,1.80
2022-11-23T05:26:35.249Z,1.80
2022-11-23T05:29:01.946Z,1.80
2022-11-23T05:31:28.898Z,1.80
2022-11-23T05:33:55.575Z,1.80
2022-11-23T05:36:22.249Z,1.80
2022-11-23T05:38:49.071Z,1.80
2022-11-23T05:41:15.720Z,1.80
2022-11-23T05:43:42.393Z,1.80
2022-11-23T05:46:09.044Z,1.80
2022-11-23T05:48:35.717Z,1.80
2022-11-23T05:51:05.402Z,1.70
2022-11-23T05:53:32.432Z,1.80
2022-11-23T05:56:01.345Z,1.80
2022-11-23T05:58:28.946Z,1.80
2022-11-23T06:00:59.813Z,1.80
2022-11-23T06:03:26.983Z,1.80
2022-11-23T06:05:53.740Z,1.80
2022-11-23T06:08:20.627Z,1.80
2022-11-23T06:10:47.294Z,1.80
2022-11-23T06:13:13.957Z,1.80
2022-11-23T06:15:40.643Z,1.80
2022-11-23T06:20:42.700Z,1.80
2022-11-23T06:23:09.432Z,1.80
2022-11-23T06:25:38.705Z,1.80
2022-11-23T06:28:05.888Z,1.80
2022-11-23T06:30:32.773Z,1.80
2022-11-23T06:33:03.436Z,1.70
2022-11-23T06:35:30.255Z,1.70
2022-11-23T06:37:56.962Z,1.70
2022-11-23T06:40:24.096Z,1.70
2022-11-23T06:42:51.038Z,1.70
2022-11-23T06:45:17.837Z,1.70
2022-11-23T06:47:44.517Z,1.70
2022-11-23T06:50:11.503Z,1.70
2022-11-23T06:52:38.188Z,1.70
2022-11-23T06:55:05.399Z,1.70
2022-11-23T06:57:32.502Z,1.50
2022-11-23T06:59:59.247Z,1.70
2022-11-23T07:02:25.988Z,1.70
2022-11-23T07:04:53.170Z,1.70
2022-11-23T07:07:19.940Z,1.70
2022-11-23T07:09:46.993Z,1.70
2022-11-23T07:12:13.812Z,1.80
2022-11-23T07:14:40.540Z,1.80
2022-11-23T07:17:07.293Z,1.80
2022-11-23T07:19:34.202Z,1.80
2022-11-23T07:22:01.109Z,1.80
2022-11-23T07:24:29.152Z,1.80
2022-11-23T07:26:57.417Z,1.80
2022-11-23T07:29:24.168Z,1.80
2022-11-23T07:31:50.841Z,1.80
2022-11-23T07:34:17.495Z,1.80
2022-11-23T07:36:44.190Z,1.90
2022-11-23T07:39:11.628Z,1.80
2022-11-23T07:41:38.304Z,1.90
2022-11-23T07:44:05.255Z,1.90
2022-11-23T07:46:32.032Z,1.90
2022-11-23T07:49:02.187Z,1.90
2022-11-23T07:51:29.517Z,1.90
2022-11-23T07:53:56.480Z,3.30
2022-11-23T07:56:23.837Z,2.00
2022-11-23T07:58:50.659Z,2.00
2022-11-23T08:01:18.845Z,2.00
2022-11-23T08:03:46.472Z,2.10
2022-11-23T08:06:14.164Z,2.00
2022-11-23T08:08:42.339Z,2.00
2022-11-23T08:11:10.343Z,2.90
2022-11-23T08:13:37.336Z,2.10
2022-11-23T08:16:04.734Z,3.00
2022-11-23T08:18:31.676Z,2.20
2022-11-23T08:21:02.015Z,2.20
2022-11-23T08:23:29.236Z,2.30
2022-11-23T08:25:56.189Z,2.60
2022-11-23T08:28:22.941Z,2.30
2022-11-23T08:30:49.813Z,2.40
2022-11-23T08:33:16.855Z,2.40
2022-11-23T08:35:43.945Z,2.40
2022-11-23T08:38:11.417Z,2.50
2022-11-23T08:40:38.517Z,2.70
2022-11-23T08:43:06.324Z,2.40
2022-11-23T08:45:33.276Z,2.50
2022-11-23T08:48:01.228Z,2.50
2022-11-23T08:50:29.299Z,2.50
2022-11-23T08:53:00.214Z,2.50
2022-11-23T08:55:28.502Z,2.60
2022-11-23T08:58:06.815Z,2.60
2022-11-23T09:00:37.810Z,2.60
2022-11-23T09:03:04.563Z,2.60
2022-11-23T09:05:31.304Z,2.60
2022-11-23T09:08:03.786Z,2.60
2022-11-23T09:10:30.583Z,2.60
2022-11-23T09:12:58.344Z,2.70
2022-11-23T09:15:25.479Z,2.70
2022-11-23T09:17:52.217Z,2.70
2022-11-23T09:20:19.044Z,2.80
2022-11-23T09:22:51.510Z,2.80
2022-11-23T09:25:18.583Z,2.80
2022-11-23T09:27:45.898Z,2.80
2022-11-23T09:30:13.210Z,2.80
2022-11-23T09:32:40.013Z,2.90
2022-11-23T09:35:07.382Z,3.00
2022-11-23T09:37:34.053Z,3.00
2022-11-23T09:40:00.845Z,3.00
2022-11-23T09:42:48.662Z,3.00
2022-11-23T09:45:21.574Z,3.00
2022-11-23T09:47:51.693Z,3.10
2022-11-23T09:50:30.453Z,3.10
2022-11-23T09:53:10.238Z,3.00
2022-11-23T09:55:41.974Z,3.10
2022-11-23T09:58:15.278Z,3.10
2022-11-23T10:00:46.519Z,3.10
2022-11-23T10:03:18.032Z,3.10
2022-11-23T10:05:57.694Z,3.10
2022-11-23T10:08:48.034Z,3.10
2022-11-23T10:11:23.245Z,3.20
2022-11-23T10:13:59.061Z,3.10
2022-11-23T10:17:02.711Z,3.10
2022-11-23T10:19:29.399Z,3.10
2022-11-23T10:22:04.957Z,3.10
2022-11-23T10:24:38.240Z,3.10
2022-11-23T10:27:20.860Z,3.00
2022-11-23T10:29:48.914Z,3.00
2022-11-23T10:32:30.868Z,3.00
2022-11-23T10:35:11.938Z,3.00
2022-11-23T10:37:40.483Z,3.10
2022-11-23T10:40:17.052Z,3.00
2022-11-23T10:42:49.309Z,3.30
2022-11-23T10:45:29.607Z,3.10
2022-11-23T10:48:01.021Z,3.10
2022-11-23T10:50:37.409Z,3.10
2022-11-23T10:53:09.732Z,3.10
2022-11-23T10:55:55.068Z,3.10
2022-11-23T10:58:36.377Z,3.00
2022-11-23T11:01:12.915Z,3.00
2022-11-23T11:03:40.167Z,3.10
2022-11-23T11:06:09.071Z,3.00
2022-11-23T11:08:52.217Z,3.00
2022-11-23T11:11:21.873Z,3.00
2022-11-23T11:13:49.218Z,3.10
2022-11-23T11:16:31.078Z,3.10
2022-11-23T11:18:58.188Z,3.10
2022-11-23T11:21:34.489Z,3.10
2022-11-23T11:24:05.793Z,3.10
2022-11-23T11:26:36.001Z,3.10
2022-11-23T11:29:09.914Z,3.10
2022-11-23T11:32:11.689Z,3.20
2022-11-23T11:35:20.796Z,3.30
2022-11-23T11:37:51.333Z,3.30
2022-11-23T11:40:33.595Z,3.20
2022-11-23T11:43:39.161Z,3.30
2022-11-23T11:46:29.978Z,3.30
2022-11-23T11:49:13.104Z,3.30
2022-11-23T11:51:45.931Z,3.30
2022-11-23T11:55:00.214Z,3.30
2022-11-23T11:57:39.257Z,3.40
2022-11-23T12:00:13.021Z,3.40
2022-11-23T12:03:10.383Z,3.30
2022-11-23T12:05:44.723Z,3.30
2022-11-23T12:08:33.602Z,3.30
2022-11-23T12:11:02.293Z,3.30
2022-11-23T12:13:37.776Z,3.40
2022-11-23T12:16:11.037Z,3.30
2022-11-23T12:19:02.400Z,3.30
2022-11-23T12:21:54.510Z,3.30
2022-11-23T12:24:53.456Z,3.30
2022-11-23T12:27:39.302Z,3.30
2022-11-23T12:30:31.027Z,3.30
2022-11-23T12:33:29.696Z,3.30
2022-11-23T12:36:13.789Z,3.30
2022-11-23T12:38:55.201Z,4.50
2022-11-23T12:41:42.680Z,3.30
2022-11-23T12:44:46.764Z,3.30
2022-11-23T12:47:36.896Z,3.30
2022-11-23T12:50:24.721Z,3.30
2022-11-23T12:53:03.539Z,3.40
2022-11-23T12:56:05.989Z,3.30
2022-11-23T12:58:34.778Z,3.30
2022-11-23T13:01:17.996Z,3.20
2022-11-23T13:04:08.740Z,3.30
2022-11-23T13:07:27.658Z,3.30
2022-11-23T13:10:03.793Z,3.20
2022-11-23T13:13:16.204Z,3.20
2022-11-23T13:15:50.410Z,3.20
2022-11-23T13:18:33.444Z,3.20
2022-11-23T13:21:24.986Z,3.20
2022-11-23T13:23:51.863Z,3.10
2022-11-23T13:26:31.673Z,3.20
2022-11-23T13:28:59.154Z,3.60
2022-11-23T13:31:31.056Z,3.10
2022-11-23T13:34:00.662Z,3.10
2022-11-23T13:36:56.499Z,3.20
2022-11-23T13:39:51.144Z,3.20
2022-11-23T13:42:18.599Z,3.20
2022-11-23T13:44:45.344Z,3.20
2022-11-23T13:47:16.051Z,3.20
2022-11-23T13:49:49.168Z,3.20
2022-11-23T13:52:22.950Z,3.10
2022-11-23T13:55:10.054Z,3.20
2022-11-23T13:57:42.847Z,3.20
2022-11-23T14:00:47.545Z,3.10
2022-11-23T14:03:42.642Z,3.10
2022-11-23T14:06:52.512Z,3.10
2022-11-23T14:09:58.958Z,3.50
2022-11-23T14:12:49.356Z,3.10
2022-11-23T14:15:23.020Z,3.20
2022-11-23T14:18:14.633Z,3.20
2022-11-23T14:20:41.372Z,3.10
2022-11-23T14:23:29.529Z,3.10
2022-11-23T14:26:21.894Z,3.10
2022-11-23T14:28:54.167Z,3.10
2022-11-23T14:31:39.769Z,3.10
2022-11-23T14:34:31.585Z,3.10
2022-11-23T14:37:26.067Z,3.10
2022-11-23T14:40:23.598Z,3.00
2022-11-23T14:42:54.255Z,3.00
2022-11-23T14:45:23.626Z,3.00
2022-11-23T14:47:50.322Z,3.00
2022-11-23T14:50:28.892Z,3.00
2022-11-23T14:52:58.221Z,3.10
2022-11-23T14:55:28.046Z,3.00
2022-11-23T14:58:02.773Z,3.00
2022-11-23T15:00:39.496Z,3.10
2022-11-23T15:06:24.774Z,4.40
2022-11-23T15:09:09.529Z,3.00
2022-11-23T15:11:37.644Z,3.10
2022-11-23T15:14:25.285Z,3.10
2022-11-23T15:16:52.132Z,3.00
2022-11-23T15:19:30.078Z,3.00
2022-11-23T15:21:57.550Z,3.10
2022-11-23T15:24:26.794Z,3.10
2022-11-23T15:26:59.574Z,1.70
2022-11-23T15:29:29.355Z,3.00
2022-11-23T15:32:22.233Z,3.10
2022-11-23T15:34:42.867Z,3.10
2022-11-23T15:37:11.031Z,3.00
2022-11-23T15:39:38.680Z,3.10
2022-11-23T15:42:06.226Z,3.10
2022-11-23T15:44:33.311Z,3.10
2022-11-23T15:47:07.378Z,3.00
2022-11-23T15:49:38.823Z,3.00
2022-11-23T15:52:06.057Z,3.00
2022-11-23T15:54:38.522Z,3.10
2022-11-23T15:57:13.652Z,3.10
2022-11-23T15:59:47.576Z,3.10
2022-11-23T16:02:26.299Z,3.10
2022-11-23T16:05:14.162Z,3.10
2022-11-23T16:07:58.857Z,3.00
2022-11-23T16:10:35.144Z,3.10
2022-11-23T16:13:03.926Z,3.10
2022-11-23T16:15:32.705Z,3.00
2022-11-23T16:18:01.055Z,3.10
2022-11-23T16:20:29.463Z,3.00
2022-11-23T16:22:59.376Z,3.00
2022-11-23T16:25:31.761Z,3.10
2022-11-23T16:28:27.822Z,3.10
2022-11-23T16:30:54.632Z,3.10
2022-11-23T16:33:21.452Z,3.10
2022-11-23T16:35:48.373Z,3.20
2022-11-23T16:38:15.412Z,3.60
2022-11-23T16:40:43.366Z,3.10
2022-11-23T16:43:13.831Z,3.10
2022-11-23T16:45:45.882Z,3.10
2022-11-23T16:48:38.321Z,3.10
2022-11-23T16:51:05.869Z,3.10
2022-11-23T16:53:53.334Z,3.10
2022-11-23T16:56:27.131Z,3.00
2022-11-23T16:58:54.942Z,3.00
2022-11-23T17:01:26.773Z,3.00
2022-11-23T17:03:53.937Z,3.00
2022-11-23T17:06:23.128Z,4.40
2022-11-23T17:08:57.730Z,3.00
2022-11-23T17:11:27.938Z,3.00
2022-11-23T17:13:56.041Z,3.00
2022-11-23T17:16:25.252Z,3.00
2022-11-23T17:18:52.136Z,3.00
2022-11-23T17:21:18.777Z,3.00
2022-11-23T17:23:45.476Z,3.00
2022-11-23T17:26:37.766Z,3.00
2022-11-23T17:29:10.614Z,3.00
2022-11-23T17:31:37.367Z,4.30
2022-11-23T17:34:04.116Z,3.00
2022-11-23T17:36:31.883Z,3.30
2022-11-23T17:38:58.959Z,3.00
2022-11-23T17:41:25.620Z,3.00
2022-11-23T17:43:52.331Z,3.00
2022-11-23T17:46:22.454Z,4.10
2022-11-23T17:48:54.493Z,3.00
2022-11-23T17:51:21.157Z,3.00
2022-11-23T17:53:48.152Z,3.00
2022-11-23T17:56:19.448Z,3.00
2022-11-23T17:58:47.121Z,3.00
2022-11-23T18:01:18.838Z,3.00
2022-11-23T18:03:46.292Z,3.00
2022-11-23T18:06:19.295Z,2.90
2022-11-23T18:08:47.389Z,3.00
2022-11-23T18:11:15.478Z,3.00
2022-11-23T18:13:43.114Z,3.00
2022-11-23T18:16:11.212Z,3.00
2022-11-23T18:18:38.508Z,3.00
2022-11-23T18:21:08.133Z,3.00
2022-11-23T18:23:34.924Z,3.00
2022-11-23T18:26:04.567Z,3.00
2022-11-23T18:28:31.807Z,3.00
2022-11-23T18:30:58.566Z,3.80
2022-11-23T18:33:25.318Z,3.00
2022-11-23T18:35:52.063Z,3.00
2022-11-23T18:38:18.802Z,3.00
2022-11-23T18:40:45.499Z,3.00
2022-11-23T18:43:12.301Z,3.00
2022-11-23T18:45:39.069Z,4.30
2022-11-23T18:48:07.848Z,3.00
2022-11-23T18:50:35.690Z,3.00
2022-11-23T18:53:02.635Z,3.00
2022-11-23T18:55:29.313Z,3.00
2022-11-23T18:57:56.208Z,3.40
2022-11-23T19:00:23.179Z,3.00
2022-11-23T19:02:58.767Z,3.00
2022-11-23T19:05:28.133Z,3.00
2022-11-23T19:07:57.425Z,3.10
2022-11-23T19:10:24.240Z,3.00
2022-11-23T19:12:50.893Z,3.60
2022-11-23T19:15:17.584Z,3.10
2022-11-23T19:17:44.365Z,3.00
2022-11-23T19:20:11.407Z,3.10
2022-11-23T19:22:38.159Z,3.10
2022-11-23T19:25:05.337Z,3.10
2022-11-23T19:27:36.057Z,3.10
2022-11-23T19:30:09.021Z,3.10
2022-11-23T19:32:36.574Z,3.10
2022-11-23T19:35:04.099Z,3.10
2022-11-23T19:37:30.901Z,3.20
2022-11-23T19:39:57.736Z,3.20
2022-11-23T19:42:24.481Z,3.10
2022-11-23T19:44:51.140Z,3.10
2022-11-23T19:47:22.711Z,3.10
2022-11-23T19:49:49.787Z,3.20
2022-11-23T19:52:16.652Z,3.20
2022-11-23T19:54:43.368Z,3.20
2022-11-23T19:57:10.468Z,3.20
2022-11-23T19:59:37.165Z,3.90
2022-11-23T20:02:03.938Z,3.10
2022-11-23T20:04:30.881Z,3.20
2022-11-23T20:06:57.597Z,3.20
2022-11-23T20:09:24.390Z,3.20
2022-11-23T20:11:51.815Z,3.20
2022-11-23T20:14:19.097Z,3.10
2022-11-23T20:16:45.784Z,3.20
2022-11-23T20:19:12.508Z,3.20
2022-11-23T20:21:39.202Z,3.20
2022-11-23T20:24:10.773Z,3.10
2022-11-23T20:26:38.068Z,3.10
2022-11-23T20:29:06.013Z,3.10
2022-11-23T20:31:33.693Z,3.20
2022-11-23T20:34:01.920Z,3.20
2022-11-23T20:36:32.809Z,3.20
2022-11-23T20:39:05.941Z,3.10
2022-11-23T20:41:35.110Z,3.10
2022-11-23T20:44:04.332Z,3.00
2022-11-23T20:46:54.111Z,3.10
2022-11-23T20:49:18.928Z,3.00
2022-11-23T20:51:45.626Z,3.00
2022-11-23T20:54:12.390Z,3.00
2022-11-23T20:56:39.526Z,3.00
2022-11-23T20:59:06.314Z,3.00
2022-11-23T21:01:33.259Z,3.00
2022-11-23T21:04:00.233Z,3.00
2022-11-23T21:06:27.994Z,3.00
2022-11-23T21:08:55.380Z,3.00
2022-11-23T21:11:45.627Z,3.00
2022-11-23T21:14:24.479Z,3.00
2022-11-23T21:16:56.866Z,3.00
2022-11-23T21:19:28.626Z,3.00
2022-11-23T21:21:57.130Z,3.00
2022-11-23T21:24:24.712Z,3.00
2022-11-23T21:26:51.681Z,3.00
2022-11-23T21:29:18.868Z,3.00
2022-11-23T21:31:47.526Z,3.00
2022-11-23T21:34:18.327Z,2.90
2022-11-23T21:36:45.788Z,3.00
2022-11-23T21:39:13.428Z,2.90
2022-11-23T21:41:40.818Z,3.50
2022-11-23T21:44:08.943Z,2.90
2022-11-23T21:46:37.808Z,3.50
2022-11-23T21:49:06.589Z,2.90
2022-11-23T21:51:34.913Z,2.90
2022-11-23T21:54:07.353Z,2.90
2022-11-23T21:56:36.953Z,2.90
2022-11-23T21:59:04.033Z,2.90
2022-11-23T22:01:32.913Z,2.90
2022-11-23T22:04:09.154Z,2.90
2022-11-23T22:06:37.253Z,2.80
2022-11-23T22:09:05.411Z,2.80
2022-11-23T22:11:34.321Z,2.80
2022-11-23T22:14:07.370Z,2.90
2022-11-23T22:16:36.331Z,4.30
2022-11-23T22:19:04.406Z,2.80
2022-11-23T22:21:39.025Z,3.20
2022-11-23T22:24:07.403Z,2.70
2022-11-23T22:26:34.161Z,2.80
2022-11-23T22:29:02.801Z,2.70
2022-11-23T22:31:33.144Z,2.70
2022-11-23T22:34:01.229Z,2.70
2022-11-23T22:36:28.167Z,2.70
2022-11-23T22:39:03.309Z,2.60
2022-11-23T22:41:36.196Z,2.70
2022-11-23T22:44:04.585Z,2.70
2022-11-23T22:46:31.481Z,2.70
2022-11-23T22:48:59.402Z,2.60
2022-11-23T22:51:28.669Z,2.60
2022-11-23T22:54:05.418Z,4.60
2022-11-23T22:56:32.879Z,2.60
2022-11-23T22:58:59.833Z,2.60
2022-11-23T23:01:29.055Z,3.40
2022-11-23T23:03:57.837Z,2.60
2022-11-23T23:06:27.088Z,2.60
2022-11-23T23:08:59.568Z,3.10
2022-11-23T23:11:29.146Z,2.70
2022-11-23T23:13:56.637Z,2.60
2022-11-23T23:16:23.759Z,3.70
2022-11-23T23:18:51.521Z,2.60
2022-11-23T23:21:20.344Z,2.60
2022-11-23T23:23:49.428Z,2.50
2022-11-23T23:26:18.020Z,2.60
2022-11-23T23:28:45.585Z,2.60
2022-11-23T23:31:16.103Z,2.50
2022-11-23T23:33:43.947Z,2.50
2022-11-23T23:36:13.507Z,2.50
2022-11-23T23:38:41.143Z,2.50
2022-11-23T23:41:09.269Z,4.00
2022-11-23T23:43:36.286Z,2.50
2022-11-23T23:46:05.981Z,3.40
2022-11-23T23:48:37.542Z,2.50
2022-11-23T23:51:09.261Z,2.50
2022-11-23T23:53:36.772Z,2.50
2022-11-23T23:56:07.580Z,2.50
2022-11-23T23:58:34.421Z,2.50
